Time,TemperatureF,DewpointF,PressureIn,WindDirection,WindDirectionDegrees,WindSpeedMPH,WindSpeedGustMPH,Humidity,HourlyPrecipIn,Conditions,Clouds,dailyrainin,SoftwareType,DateUTC
2013-10-04 00:18:00,50.0,23.0,-100.00,SW,225,3.0,11.0,35,0.00,,,0.00,,2013-10-04 06:18:00,
2013-10-04 00:26:00,50.0,23.0,-100.00,SW,225,3.0,11.0,35,0.00,,,0.00,,2013-10-04 06:26:00,
2013-10-04 00:36:00,50.0,23.0,-100.00,SW,225,3.0,11.0,35,0.00,,,0.00,,2013-10-04 06:36:00,
2013-10-04 00:40:00,50.0,23.0,-100.00,WSW,251,5.0,14.0,34,0.00,,,0.00,,2013-10-04 06:40:00,
2013-10-04 01:17:00,50.0,23.0,-100.00,WSW,251,5.0,14.0,34,0.00,,,0.00,,2013-10-04 07:17:00,
2013-10-04 01:26:00,50.0,23.0,-100.00,WSW,251,5.0,14.0,34,0.00,,,0.00,,2013-10-04 07:26:00,
2013-10-04 01:36:00,50.0,23.0,-100.00,WSW,251,5.0,14.0,34,0.00,,,0.00,,2013-10-04 07:36:00,
2013-10-04 01:40:00,49.0,20.0,-100.00,SW,229,5.0,11.0,32,0.00,,,0.00,,2013-10-04 07:40:00,
2013-10-04 02:17:00,49.0,20.0,-100.00,SW,229,5.0,11.0,32,0.00,,,0.00,,2013-10-04 08:17:00,
2013-10-04 02:26:00,49.0,20.0,-100.00,SW,229,5.0,11.0,32,0.00,,,0.00,,2013-10-04 08:26:00,
2013-10-04 02:36:00,49.0,20.0,-100.00,SW,229,5.0,11.0,32,0.00,,,0.00,,2013-10-04 08:36:00,
2013-10-04 02:40:00,47.0,19.0,-100.00,WSW,245,3.0,13.0,33,0.00,,,0.00,,2013-10-04 08:40:00,
2013-10-04 03:16:00,47.0,19.0,-100.00,WSW,245,3.0,13.0,33,0.00,,,0.00,,2013-10-04 09:16:00,
2013-10-04 03:26:00,47.0,19.0,-100.00,WSW,245,3.0,13.0,33,0.00,,,0.00,,2013-10-04 09:26:00,
2013-10-04 03:38:00,47.0,19.0,-100.00,WSW,245,3.0,13.0,33,0.00,,,0.00,,2013-10-04 09:38:00,
2013-10-04 03:40:00,47.0,19.0,-100.00,SW,215,4.0,11.0,33,0.00,,,0.00,,2013-10-04 09:40:00,
2013-10-04 04:19:00,47.0,19.0,-100.00,SW,215,4.0,11.0,33,0.00,,,0.00,,2013-10-04 10:19:00,
2013-10-04 04:29:00,47.0,19.0,-100.00,SW,215,4.0,11.0,33,0.00,,,0.00,,2013-10-04 10:29:00,
2013-10-04 04:38:00,47.0,19.0,-100.00,SW,215,4.0,11.0,33,0.00,,,0.00,,2013-10-04 10:38:00,
2013-10-04 04:40:00,45.0,23.0,-100.00,SW,215,2.0,13.0,41,0.00,,,0.00,,2013-10-04 10:40:00,
2013-10-04 05:19:00,45.0,23.0,-100.00,SW,215,2.0,13.0,41,0.00,,,0.00,,2013-10-04 11:19:00,
2013-10-04 05:28:00,45.0,23.0,-100.00,SW,215,2.0,13.0,41,0.00,,,0.00,,2013-10-04 11:28:00,
2013-10-04 05:38:00,45.0,23.0,-100.00,SW,215,2.0,13.0,41,0.00,,,0.00,,2013-10-04 11:38:00,
2013-10-04 05:40:00,42.0,22.0,-100.00,WSW,257,3.0,10.0,45,0.00,,,0.00,,2013-10-04 11:40:00,
2013-10-04 06:19:00,42.0,22.0,-100.00,WSW,257,3.0,10.0,45,0.00,,,0.00,,2013-10-04 12:19:00,
2013-10-04 06:28:00,42.0,22.0,-100.00,WSW,257,3.0,10.0,45,0.00,,,0.00,,2013-10-04 12:28:00,
2013-10-04 06:38:00,42.0,22.0,-100.00,WSW,257,3.0,10.0,45,0.00,,,0.00,,2013-10-04 12:38:00,
2013-10-04 06:40:00,38.0,24.0,-100.00,West,279,7.0,17.0,57,0.00,,,0.00,,2013-10-04 12:40:00,
2013-10-04 07:19:00,38.0,24.0,-100.00,West,279,7.0,17.0,57,0.00,,,0.00,,2013-10-04 13:19:00,
2013-10-04 07:28:00,38.0,24.0,-100.00,West,279,7.0,17.0,57,0.00,,,0.00,,2013-10-04 13:28:00,
2013-10-04 07:37:00,38.0,24.0,-100.00,West,279,7.0,17.0,57,0.00,,,0.00,,2013-10-04 13:37:00,
2013-10-04 07:40:00,36.0,20.0,-100.00,West,275,6.0,17.0,52,0.00,,,0.00,,2013-10-04 13:40:00,
2013-10-04 08:18:00,36.0,20.0,-100.00,West,275,6.0,17.0,52,0.00,,,0.00,,2013-10-04 14:18:00,
2013-10-04 08:28:00,36.0,20.0,-100.00,West,275,6.0,17.0,52,0.00,,,0.00,,2013-10-04 14:28:00,
2013-10-04 08:38:00,36.0,20.0,-100.00,West,275,6.0,17.0,52,0.00,,,0.00,,2013-10-04 14:38:00,
2013-10-04 08:40:00,40.0,18.0,-100.00,WNW,285,8.0,18.0,40,0.00,,,0.00,,2013-10-04 14:40:00,
2013-10-04 09:19:00,40.0,18.0,-100.00,WNW,285,8.0,18.0,40,0.00,,,0.00,,2013-10-04 15:19:00,
2013-10-04 09:28:00,40.0,18.0,-100.00,WNW,285,8.0,18.0,40,0.00,,,0.00,,2013-10-04 15:28:00,
2013-10-04 09:38:00,40.0,18.0,-100.00,WNW,285,8.0,18.0,40,0.00,,,0.00,,2013-10-04 15:38:00,
2013-10-04 09:40:00,44.0,17.0,-100.00,WNW,288,7.0,23.0,34,0.00,,,0.00,,2013-10-04 15:40:00,
2013-10-04 10:19:00,44.0,17.0,-100.00,WNW,288,7.0,23.0,34,0.00,,,0.00,,2013-10-04 16:19:00,
2013-10-04 10:29:00,44.0,17.0,-100.00,WNW,288,7.0,23.0,34,0.00,,,0.00,,2013-10-04 16:29:00,
2013-10-04 10:39:00,44.0,17.0,-100.00,WNW,288,7.0,23.0,34,0.00,,,0.00,,2013-10-04 16:39:00,
2013-10-04 11:19:00,46.0,9.0,-100.00,WNW,283,8.0,24.0,22,0.00,,,0.00,,2013-10-04 17:19:00,
2013-10-04 11:29:00,46.0,9.0,-100.00,WNW,283,8.0,24.0,22,0.00,,,0.00,,2013-10-04 17:29:00,
2013-10-04 13:12:00,48.0,3.0,-100.00,WNW,294,10.0,23.0,15,0.00,,,-99.99,,2013-10-04 19:12:00,
2013-10-04 13:40:00,48.0,1.0,-100.00,West,271,8.0,20.0,14,0.00,,,0.00,,2013-10-04 19:40:00,
2013-10-04 14:40:00,48.0,-2.0,-100.00,West,263,7.0,20.0,12,0.00,,,0.00,,2013-10-04 20:40:00,
2013-10-04 15:40:00,47.0,-7.0,-100.00,West,276,9.0,20.0,10,0.00,,,0.00,,2013-10-04 21:40:00,
2013-10-04 16:40:00,47.0,-1.0,-100.00,WSW,247,6.0,19.0,13,0.00,,,0.00,,2013-10-04 22:40:00,
2013-10-04 17:12:00,47.0,-1.0,-100.00,WSW,247,6.0,19.0,13,0.00,,,0.00,,2013-10-04 23:12:00,
2013-10-04 17:22:00,47.0,-1.0,-100.00,WSW,247,6.0,19.0,13,0.00,,,0.00,,2013-10-04 23:22:00,
2013-10-04 17:33:00,47.0,-1.0,-100.00,WSW,247,6.0,19.0,13,0.00,,,0.00,,2013-10-04 23:33:00,
2013-10-04 17:40:00,45.0,0.0,-100.00,WNW,288,6.0,17.0,15,0.00,,,0.00,,2013-10-04 23:40:00,
2013-10-04 18:12:00,45.0,0.0,-100.00,WNW,288,6.0,17.0,15,0.00,,,0.00,,2013-10-05 00:12:00,
2013-10-04 18:22:00,45.0,0.0,-100.00,WNW,288,6.0,17.0,15,0.00,,,0.00,,2013-10-05 00:22:00,
2013-10-04 18:32:00,45.0,0.0,-100.00,WNW,288,6.0,17.0,15,0.00,,,0.00,,2013-10-05 00:32:00,
2013-10-04 18:40:00,40.0,-3.0,-100.00,WNW,282,3.0,13.0,16,0.00,,,0.00,,2013-10-05 00:40:00,
2013-10-04 19:11:00,40.0,-3.0,-100.00,WNW,282,3.0,13.0,16,0.00,,,0.00,,2013-10-05 01:11:00,
2013-10-04 19:21:00,40.0,-3.0,-100.00,WNW,282,3.0,13.0,16,0.00,,,0.00,,2013-10-05 01:21:00,
2013-10-04 19:32:00,40.0,-3.0,-100.00,WNW,282,3.0,13.0,16,0.00,,,0.00,,2013-10-05 01:32:00,
2013-10-04 19:40:00,38.0,1.0,-100.00,WNW,289,4.0,8.0,20,0.00,,,0.00,,2013-10-05 01:40:00,
2013-10-04 20:11:00,38.0,1.0,-100.00,WNW,289,4.0,8.0,20,0.00,,,0.00,,2013-10-05 02:11:00,
2013-10-04 20:22:00,38.0,1.0,-100.00,WNW,289,4.0,8.0,20,0.00,,,0.00,,2013-10-05 02:22:00,
2013-10-04 20:32:00,38.0,1.0,-100.00,WNW,289,4.0,8.0,20,0.00,,,0.00,,2013-10-05 02:32:00,
2013-10-04 20:40:00,35.0,2.0,-100.00,WNW,297,3.0,10.0,24,0.00,,,0.00,,2013-10-05 02:40:00,
2013-10-04 21:12:00,35.0,2.0,-100.00,WNW,297,3.0,10.0,24,0.00,,,0.00,,2013-10-05 03:12:00,
2013-10-04 21:23:00,35.0,2.0,-100.00,WNW,297,3.0,10.0,24,0.00,,,0.00,,2013-10-05 03:23:00,
2013-10-04 21:34:00,35.0,2.0,-100.00,WNW,297,3.0,10.0,24,0.00,,,0.00,,2013-10-05 03:34:00,
2013-10-04 21:40:00,30.0,4.0,-100.00,ENE,76,0.0,6.0,33,0.00,,,0.00,,2013-10-05 03:40:00,
2013-10-04 22:14:00,30.0,4.0,-100.00,ENE,76,0.0,6.0,33,0.00,,,0.00,,2013-10-05 04:14:00,
2013-10-04 22:24:00,30.0,4.0,-100.00,ENE,76,0.0,6.0,33,0.00,,,0.00,,2013-10-05 04:24:00,
2013-10-04 22:33:00,30.0,4.0,-100.00,ENE,76,0.0,6.0,33,0.00,,,0.00,,2013-10-05 04:33:00,
2013-10-04 22:40:00,32.0,6.0,-100.00,WNW,285,4.0,7.0,32,0.00,,,0.00,,2013-10-05 04:40:00,
2013-10-04 23:13:00,32.0,6.0,-100.00,WNW,285,4.0,7.0,32,0.00,,,0.00,,2013-10-05 05:13:00,
2013-10-04 23:22:00,32.0,6.0,-100.00,WNW,285,4.0,7.0,32,0.00,,,0.00,,2013-10-05 05:22:00,
2013-10-04 23:34:00,32.0,6.0,-100.00,WNW,285,4.0,7.0,32,0.00,,,0.00,,2013-10-05 05:34:00,
2013-10-04 23:40:00,33.0,6.0,-100.00,WNW,287,4.0,8.0,32,0.00,,,0.00,,2013-10-05 05:40:00,